WEATHER DATA

YESTERDAY
Time Temp. Dewp. Hum. Bar. 1h Prec. 24h Prec.
00:05 15.5 11.3 76 1015.4 0.0000 0.0000
00:15 15.4 11.2 76 1015.3 0.0000 0.0000
00:25 15.3 11.5 78 1015.3 0.0000 0.0000
00:35 15.3 11.7 79 1015.2 0.0000 0.0000
00:45 15.2 11.8 80 1015.2 0.0000 0.0000
00:55 15.2 11.6 79 1015 0.0000 0.0000
01:06 15.1 11.3 78 1015 0.0000 0.0000
01:16 15 11.2 78 1015 0.0000 0.0000
01:25 15 11.4 79 1014.9 0.0000 0.0000
01:35 15 11.4 79 1014.9 0.0000 0.0000
01:46 15 11.4 79 1014.8 0.0000 0.0000
01:56 15 11.6 80 1014.8 0.0000 0.0000
02:06 14.9 11.5 80 1014.8 0.0000 0.0000
02:16 14.9 11.5 80 1014.8 0.0000 0.0000
02:26 14.8 11.6 81 1014.6 0.0000 0.0000
02:36 14.8 11.6 81 1014.4 0.0000 0.0000
02:46 14.8 11.6 81 1014.4 0.0000 0.0000
02:56 14.8 11.8 82 1014.3 0.0000 0.0000
03:06 14.7 11.7 82 1014.4 0.0000 0.0000
03:16 14.7 11.8 83 1014.2 0.0000 0.0000
03:26 14.8 11.9 83 1014.3 0.0000 0.0000
03:37 14.8 11.9 83 1014.2 0.0000 0.0000
03:46 14.9 12 83 1014.2 0.0000 0.0000
03:56 14.9 12 83 1014 0.0000 0.0000
04:07 14.9 12 83 1014 0.0000 0.0000
04:17 14.9 12.2 84 1014.1 0.0000 0.0000
04:27 14.9 12.2 84 1014.2 0.0000 0.0000
04:37 14.9 12.2 84 1014.3 0.0000 0.0000
04:47 14.9 12.2 84 1014.2 0.0000 0.0000
04:57 14.8 12.1 84 1014.2 0.0000 0.0000
05:07 14.7 12 84 1014.3 0.0000 0.0000
05:18 14.7 12 84 1014.3 0.0000 0.0000
05:27 14.6 12.1 85 1014.3 0.0000 0.0000
05:37 14.6 12.1 85 1014.4 0.0000 0.0000
05:47 14.5 12 85 1014.6 0.0000 0.0000
05:58 14.5 12 85 1014.6 0.0000 0.0000
06:07 14.5 12 85 1014.8 0.0000 0.0000
06:17 14.5 12 85 1014.8 0.0000 0.0000
06:28 14.5 12 85 1014.9 0.0000 0.0000
06:38 14.6 12.3 86 1014.9 0.0000 0.0000
06:48 14.6 12.1 85 1015 0.0000 0.0000
06:58 14.7 12.2 85 1015.2 0.0000 0.0000
07:08 14.7 12.2 85 1015.3 0.0000 0.0000
07:18 14.8 12.3 85 1015.3 0.0000 0.0000
07:28 14.8 12.1 84 1015.6 0.0000 0.0000
07:39 14.9 12.2 84 1015.6 0.0000 0.0000
07:48 14.9 12.2 84 1015.6 0.0000 0.0000
07:58 15 12.3 84 1015.6 0.0000 0.0000
08:08 15 12.3 84 1015.7 0.0000 0.0000
08:19 15.1 12.4 84 1015.8 0.0000 0.0000
08:28 15.1 12.4 84 1015.9 0.0000 0.0000
08:38 15.2 12.5 84 1016 0.0000 0.0000
08:49 15.4 12.7 84 1016 0.0000 0.0000
08:59 15.5 12.6 83 1016.1 0.0000 0.0000
09:09 15.6 12.7 83 1016.2 0.0000 0.0000
09:19 15.7 12.6 82 1016.2 0.0000 0.0000
09:29 15.8 12.7 82 1016.4 0.0000 0.0000
09:39 15.8 12.5 81 1016.6 0.0000 0.0000
09:49 15.8 12.4 80 1016.7 0.0000 0.0000
10:00 15.8 12.4 80 1016.9 0.0000 0.0000
10:09 15.8 12.4 80 1017 0.0000 0.0000
10:19 15.9 12.5 80 1017 0.0000 0.0000
10:29 15.9 12.5 80 1017.1 0.0000 0.0000
10:40 15.9 12.5 80 1017.1 0.0000 0.0000
10:50 16 12.6 80 1017.2 0.0000 0.0000
10:59 16.1 12.7 80 1017.2 0.0000 0.0000
11:10 16.2 12.6 79 1017.3 0.0000 0.0000
11:20 16.3 12.8 80 1017.3 0.0000 0.0000
11:30 16.3 12.8 80 1017.4 0.0000 0.0000
11:40 16.3 12.7 79 1017.5 0.0000 0.0000
11:50 16.4 12.8 79 1017.5 0.0000 0.0000
12:00 16.3 12.5 78 1017.5 0.1010 0.1000
12:10 16.4 12.6 78 1017.6 0.1010 0.1000
12:21 16.5 12.8 79 1017.7 0.1010 0.1000
12:30 16.6 12.9 79 1017.7 0.1010 0.1000
12:40 16.9 13.2 79 1017.6 0.1010 0.1000
12:50 17.2 12.9 76 1017.6 0.0000 0.1000
13:01 17.4 12.7 74 1017.6 0.0000 0.1000
13:11 17.6 12.9 74 1017.6 0.0000 0.1000
13:20 18.1 13.4 74 1017.5 0.0000 0.1000
13:31 18.7 14 74 1017.5 0.0000 0.1000
13:41 19.1 13.9 72 1017.4 0.0000 0.1000
13:51 19.4 13.1 67 1017.4 0.0000 0.1000
14:01 19.7 13.2 66 1017.4 0.0000 0.1000
14:12 20.2 14.3 69 1017.4 0.0000 0.1000
14:21 20.5 14.2 67 1017.5 0.0000 0.1000
14:31 20.8 13.5 63 1017.5 0.0000 0.1000
14:42 20.8 14 65 1017.5 0.0000 0.1000
14:52 20.8 14 65 1017.6 0.0000 0.1000
15:02 21 14.2 65 1017.6 0.0000 0.1000
15:11 20.9 13.8 64 1017.6 0.0000 0.1000
15:22 20.5 13.5 64 1017.6 0.0000 0.1000
15:32 20.3 13.5 65 1017.6 0.0000 0.1000
15:42 20.1 13.3 65 1017.5 0.0000 0.1000
15:52 20 13.2 65 1017.6 0.0000 0.1000
16:02 19.7 13.2 66 1017.6 0.0000 0.1000
16:12 19.6 13.3 67 1017.6 0.0000 0.1000
16:22 19.7 13.4 67 1017.7 0.0000 0.1000
16:33 20 13.5 66 1017.8 0.0000 0.1000
16:42 20 13.2 65 1017.8 0.0000 0.1000
16:52 19.9 13.1 65 1017.9 0.0000 0.1000
17:03 19.7 12.9 65 1018.1 0.0000 0.1000
17:13 19.4 12.9 66 1018.1 0.0000 0.1000
17:23 19.2 12.7 66 1018.3 0.0000 0.1000
17:32 18.8 12.5 67 1018.5 0.0000 0.1000
17:43 17.9 11.9 68 1018.7 0.0000 0.1000
17:53 17.4 11.7 69 1018.9 0.0000 0.1000
18:03 17 11.5 70 1019 0.0000 0.1000
18:13 16.5 11.6 73 1019.1 0.0000 0.1000
18:23 16.3 11.5 73 1019.1 0.0000 0.1000
18:33 16.1 11.5 74 1019.2 0.0000 0.1000
18:43 16.1 11.3 73 1019.3 0.0000 0.1000
18:54 16 11.4 74 1019.4 0.0000 0.1000
19:04 15.9 11.5 75 1019.4 0.0000 0.1000
19:13 15.8 11.4 75 1019.5 0.0000 0.1000
19:24 15.8 11.6 76 1019.6 0.0000 0.1000
19:34 15.7 11.5 76 1019.8 0.0000 0.1000
19:44 15.7 11.7 77 1019.9 0.0000 0.1000
19:54 15.7 11.7 77 1020 0.0000 0.1000
20:04 15.7 11.7 77 1020.2 0.0000 0.1000
20:14 15.6 11.6 77 1020.3 0.0000 0.1000
20:24 15.5 11.5 77 1020.5 0.0000 0.1000
20:34 15.4 11.2 76 1020.7 0.0000 0.1000
20:44 15.3 11.1 76 1020.8 0.0000 0.1000
20:54 15.2 11.2 77 1020.9 0.0000 0.1000
21:04 15.2 11.2 77 1021 0.0000 0.1000
21:15 15.1 10.9 76 1021.1 0.0000 0.1000
21:25 15 10.8 76 1021.2 0.0000 0.1000
21:34 14.9 10.7 76 1021.4 0.0000 0.1000
21:45 14.7 10.5 76 1021.5 0.0000 0.1000
21:55 14.5 10.3 76 1021.6 0.0000 0.1000
22:05 14.3 10.3 77 1021.6 0.0000 0.1000
22:15 14.1 10.1 77 1021.7 0.0000 0.1000
22:25 14 10 77 1021.8 0.1010 0.2000
22:35 13.9 9.9 77 1021.9 0.1010 0.2000
22:45 13.8 9.8 77 1022 0.1010 0.2000
22:55 13.7 9.7 77 1022.1 0.1010 0.2000
23:06 13.5 9.6 77 1022.2 0.1010 0.2000
23:15 13.3 9.5 78 1022.3 0.1010 0.2000
23:25 13.1 9.5 79 1022.4 0.0000 0.2000
23:36 13 9.6 80 1022.4 0.0000 0.2000
23:46 12.9 9.5 80 1022.6 0.0000 0.2000
23:56 12.9 9.7 81 1022.8 0.0000 0.2000

DAY STATISTIC

2021-09-19
TEMPERATURE
AVERAGE
16.1
HIGH
21.0
15:02
LOW
12.9
23:46
PRESSURE
AVERAGE
1017.3
HIGH
1022.8
23:56
LOW
1014.0
03:56
DEWPOINT
AVERAGE
12.0
HIGH
14.3
14:12
LOW
9.5
23:15
HUMIDITY
AVERAGE
77
HIGH
86
06:38
LOW
63
14:31
PRECIPITATION
RAIN HOUR
0.1
RAIN DAY
0.2
TEMPERATURE (°C)
LOW
12.9
HIGH
21.0
AVERAGE
16.1
PRESSURE (hpa)
LOW
1014.0
HIGH
1022.8
AVERAGE
1017.3
DEVICE